Archival Weather

Half Moon Bay

Half Moon Bay, California (KHAF)

Report from: Wednesday, December 6, 2023 3:15 AM PST
Current time: Saturday, February 24, 2024 7:02 AM PST

Current weather – Weather history – Daily summaries
Weather forecast

Present weatherMist
Temperature9.0°C (48.2°F)
Dew point9.0°C (48.2°F)
Winds Calm
Visibility2 mi. (3.2 km)
Clouds Ceiling: Overcast 300 ft. (91 m)
Altimeter30.05 in.Hg (1018 mB)
Relative humidity100 %
Density altitude-704 ft. (-215 m)
Remarks Fully automated report
Automated weather observing station with precipitation discriminator
Flight conditions Low Instrument Meteorological Conditions
Raw dataKHAF 061115Z AUTO 00000KT 2SM BR OVC003 09/09 A3005 RMK AO2
An error has occurred. This application may no longer respond until reloaded. Reload 🗙